Terminal Aerodrome Forecast
Issued by NWS Cleveland, OH

Home | Current Version | Previous Version | Graphics & Text | Print | Product List | Glossary On
Versions: 1 2 3 4 5 6 7 8 9 10 11 12 13 14 15 16 17 18 19 20 21
000
FTUS41 KCLE 251400 AAB
TAFCAK
TAF AMD
KCAK 251456Z 2515/2612 18012G20KT P6SM BKN030 OVC050
      TEMPO 2515/2518 5SM BR BKN015 OVC025
     FM251800 23015G25KT P6SM BKN025 BKN045
     FM252300 24011KT P6SM SCT025 BKN250
     FM260100 23005KT P6SM BKN200
     FM260600 VRB03KT 3SM BR BKN250=

USA.gov is the U.S. government's official web portal to all federal, state and local government web resources and services.